Thunder radar more information blitzortung!


avis per Pluja more information rain snow radar


Visita la nostra xarxa de llocs de meteo:

Template documentation
and downloads

And another site



Rain From: 17-10-2018 23:00 Until: 18-10-2018 16:59 warning for: Rain Level: Yellow info button

Pagina Historial Weather Underground text

Diari Resum January 12, 2016 Unitats:  Mètric    Imperial   Tant
« Previous Dia
SegĂźent Dia »
Diari Setmana Mensual Anual Personalitzada
  Maxima: Minima: Media:
Temperatura: -17.8 °C -13.1 °C -10.6 °C
Punt de rosada: -17.8 °C -19.2 °C -17.8 °C
Humitat: Humidity % 39 % 41 %
Wind Speed: 0 km/h 4.2 km/h 11.1 km/h
RĂ fegues de vent: 0 km/h - -
Vent:- - ENE
Pression baro: 0 hPa 34428.8 hPa -
Precipitacions: 0 mm    
Historical Graphs
 
 
Dades de taula per January 12, 2016
Temps Temperatura Punt de rosada Pression baro Vent Wind Speed RĂ fegues de vent Humitat Rainfall Rate (Hourly)
-17.8 °C -17.8 °C 0 hPa Calm     Humidity % 0 mm
11:32 -11.3 °C -17.6 °C 34496.6 hPa SSE 20.9 km/h 20.9 km/h 46 % 0 mm
11:37 -11.3 °C -17.6 °C 34496.6 hPa West 26.9 km/h 26.9 km/h 46 % 0 mm
11:47 -11.2 °C -17.6 °C 34428.8 hPa WSW 20.9 km/h 20.9 km/h 45 % 0 mm
11:52 -11.1 °C -17.5 °C 34428.8 hPa WNW 15 km/h 15 km/h 45 % 0 mm
11:57 -11 °C -17.4 °C 34462.7 hPa NNW 11.9 km/h 11.9 km/h 45 % 0 mm
12:02 -10.8 °C -17.3 °C 34462.7 hPa ENE 9 km/h 9 km/h 45 % 0 mm
12:07 -10.8 °C -17.3 °C 34462.7 hPa West 11.9 km/h 11.9 km/h 45 % 0 mm
12:12 -10.8 °C -17.3 °C 34462.7 hPa NNW 15 km/h 15 km/h 45 % 0 mm
12:17 -10.8 °C -17.3 °C 34462.7 hPa WNW 17.9 km/h 17.9 km/h 45 % 0 mm
12:22 -10.8 °C -17.3 °C 34462.7 hPa NW 11.9 km/h 11.9 km/h 45 % 0 mm
12:37 -10.6 °C -17.2 °C 34462.7 hPa SW 17.9 km/h 17.9 km/h 44 % 0 mm
12:42 -10.6 °C -17.6 °C 34462.7 hPa NNW 15 km/h 15 km/h 42 % 0 mm
12:47 -10.4 °C -17.3 °C 34462.7 hPa SW 7.6 km/h 7.6 km/h 43 % 0 mm
13:02 -10.4 °C -17.7 °C 34462.7 hPa West 26.9 km/h 26.9 km/h 41 % 0 mm
13:12 -10.3 °C -17.6 °C 34428.8 hPa SW 11.9 km/h 11.9 km/h 41 % 0 mm
13:17 -10.3 °C -17.5 °C 34428.8 hPa West 14 km/h 14 km/h 41 % 0 mm
13:22 -10.2 °C -17.4 °C 34428.8 hPa SW 17.9 km/h 17.9 km/h 41 % 0 mm
13:27 -10.1 °C -17.3 °C 34462.7 hPa WNW 9 km/h 9 km/h 41 % 0 mm
13:32 -10.1 °C -17.6 °C 34462.7 hPa SW 20.9 km/h 20.9 km/h 40 % 0 mm
13:42 -10.3 °C -17.7 °C 34462.7 hPa WNW 15 km/h 15 km/h 40 % 0 mm
13:47 -10.2 °C -17.8 °C 34462.7 hPa SW 29.8 km/h 29.8 km/h 39 % 0 mm
13:52 -10.1 °C -17.6 °C 34462.7 hPa NW 15 km/h 15 km/h 40 % 0 mm
13:57 -10.1 °C -17.6 °C 34462.7 hPa SW 26.4 km/h 26.4 km/h 40 % 0 mm
14:02 -10.3 °C -17.7 °C 34462.7 hPa SW 35.7 km/h 35.7 km/h 40 % 0 mm
14:07 -10.3 °C -17.9 °C 34462.7 hPa East 38.8 km/h 38.8 km/h 39 % 0 mm
14:12 -10.3 °C -17.7 °C 34428.8 hPa NNE 23.8 km/h 23.8 km/h 40 % 0 mm
14:17 -10.3 °C -17.7 °C 34428.8 hPa WSW 35.7 km/h 35.7 km/h 40 % 0 mm
14:22 -10.3 °C -17.7 °C 34428.8 hPa WSW 20.9 km/h 20.9 km/h 40 % 0 mm
14:27 -10.3 °C -17.7 °C 34462.7 hPa North 9 km/h 17.9 km/h 40 % 0 mm
14:32 -10.3 °C -17.7 °C 34462.7 hPa North 9 km/h 17.9 km/h 40 % 0 mm
14:37 -10.3 °C -17.7 °C 34462.7 hPa North 9 km/h 17.9 km/h 40 % 0 mm
14:42 -10.3 °C -17.7 °C 34462.7 hPa North 9 km/h 17.9 km/h 40 % 0 mm
14:47 -10.3 °C -17.7 °C 34462.7 hPa North 9 km/h 17.9 km/h 40 % 0 mm
14:52 -10.3 °C -17.7 °C 34462.7 hPa North 9 km/h 17.9 km/h 40 % 0 mm
14:57 -10.3 °C -17.7 °C 34462.7 hPa North 9 km/h 17.9 km/h 40 % 0 mm
15:02 -10.3 °C -17.7 °C 34462.7 hPa North 9 km/h 17.9 km/h 40 % 0 mm
15:07 -10.3 °C -17.7 °C 34462.7 hPa North 9 km/h 17.9 km/h 40 % 0 mm
15:12 -10.3 °C -17.7 °C 34462.7 hPa North 9 km/h 17.9 km/h 40 % 0 mm
15:17 -10.3 °C -17.7 °C 34462.7 hPa North 9 km/h 17.9 km/h 40 % 0 mm
15:22 -10.3 °C -17.7 °C 34462.7 hPa North 9 km/h 17.9 km/h 40 % 0 mm
15:32 -10.3 °C -17.7 °C 34462.7 hPa North 9 km/h 17.9 km/h 40 % 0 mm
15:37 -10.3 °C -17.7 °C 34462.7 hPa North 9 km/h 17.9 km/h 40 % 0 mm
15:42 -10.3 °C -17.7 °C 34462.7 hPa North 9 km/h 17.9 km/h 40 % 0 mm
15:47 -10.3 °C -17.7 °C 34462.7 hPa North 9 km/h 17.9 km/h 40 % 0 mm
15:52 -10.3 °C -17.7 °C 34462.7 hPa North 9 km/h 17.9 km/h 40 % 0 mm
15:57 -10.3 °C -17.7 °C 34462.7 hPa North 9 km/h 17.9 km/h 40 % 0 mm
16:02 -10.3 °C -17.7 °C 34462.7 hPa North 9 km/h 17.9 km/h 40 % 0 mm
16:07 -10.3 °C -17.7 °C 34462.7 hPa North 9 km/h 17.9 km/h 40 % 0 mm
16:12 -10.3 °C -17.7 °C 34462.7 hPa North 9 km/h 17.9 km/h 40 % 0 mm
16:17 -10.3 °C -17.7 °C 34462.7 hPa North 9 km/h 17.9 km/h 40 % 0 mm
16:27 -10.3 °C -17.7 °C 34462.7 hPa North 9 km/h 17.9 km/h 40 % 0 mm
16:32 -10.3 °C -17.7 °C 34462.7 hPa North 9 km/h 17.9 km/h 40 % 0 mm
16:37 -10.3 °C -17.7 °C 34462.7 hPa North 9 km/h 17.9 km/h 40 % 0 mm
16:47 -10.3 °C -17.7 °C 34462.7 hPa North 9 km/h 17.9 km/h 40 % 0 mm
16:57 -10.3 °C -17.7 °C 34462.7 hPa North 9 km/h 17.9 km/h 40 % 0 mm
17:02 -10.3 °C -17.7 °C 34462.7 hPa North 9 km/h 17.9 km/h 40 % 0 mm
17:07 -10.3 °C -17.7 °C 34462.7 hPa North 9 km/h 17.9 km/h 40 % 0 mm
17:12 -10.3 °C -17.7 °C 34462.7 hPa North 9 km/h 17.9 km/h 40 % 0 mm
17:17 -10.3 °C -17.7 °C 34462.7 hPa North 9 km/h 17.9 km/h 40 % 0 mm
17:22 -10.3 °C -17.7 °C 34462.7 hPa North 9 km/h 17.9 km/h 40 % 0 mm
17:27 -10.3 °C -17.7 °C 34462.7 hPa North 9 km/h 17.9 km/h 40 % 0 mm
17:32 -10.3 °C -17.7 °C 34462.7 hPa North 9 km/h 17.9 km/h 40 % 0 mm
17:37 -10.3 °C -17.7 °C 34462.7 hPa North 9 km/h 17.9 km/h 40 % 0 mm
17:42 -10.3 °C -17.7 °C 34462.7 hPa North 9 km/h 17.9 km/h 40 % 0 mm
17:47 -10.3 °C -17.7 °C 34462.7 hPa North 9 km/h 17.9 km/h 40 % 0 mm
17:52 -10.3 °C -17.7 °C 34462.7 hPa North 9 km/h 17.9 km/h 40 % 0 mm
17:57 -10.3 °C -17.7 °C 34462.7 hPa North 9 km/h 17.9 km/h 40 % 0 mm
18:02 -10.3 °C -17.7 °C 34462.7 hPa North 9 km/h 17.9 km/h 40 % 0 mm
18:07 -10.3 °C -17.7 °C 34462.7 hPa North 9 km/h 17.9 km/h 40 % 0 mm
18:12 -10.3 °C -17.7 °C 34462.7 hPa North 9 km/h 17.9 km/h 40 % 0 mm
18:17 -10.3 °C -17.7 °C 34462.7 hPa North 9 km/h 17.9 km/h 40 % 0 mm
18:22 -10.3 °C -17.7 °C 34462.7 hPa North 9 km/h 17.9 km/h 40 % 0 mm
18:27 -10.3 °C -17.7 °C 34462.7 hPa North 9 km/h 17.9 km/h 40 % 0 mm
18:32 -10.3 °C -17.7 °C 34462.7 hPa North 9 km/h 17.9 km/h 40 % 0 mm
18:37 -10.3 °C -17.7 °C 34462.7 hPa North 9 km/h 17.9 km/h 40 % 0 mm
18:42 -10.3 °C -17.7 °C 34462.7 hPa North 9 km/h 17.9 km/h 40 % 0 mm
18:47 -10.3 °C -17.7 °C 34462.7 hPa North 9 km/h 17.9 km/h 40 % 0 mm
18:52 -10.3 °C -17.7 °C 34462.7 hPa North 9 km/h 17.9 km/h 40 % 0 mm
18:57 -10.3 °C -17.7 °C 34462.7 hPa North 9 km/h 17.9 km/h 40 % 0 mm
19:02 -10.3 °C -17.7 °C 34462.7 hPa North 9 km/h 17.9 km/h 40 % 0 mm
19:07 -10.3 °C -17.7 °C 34462.7 hPa North 9 km/h 17.9 km/h 40 % 0 mm
19:12 -10.3 °C -17.7 °C 34462.7 hPa North 9 km/h 17.9 km/h 40 % 0 mm
19:17 -10.3 °C -17.7 °C 34462.7 hPa North 9 km/h 17.9 km/h 40 % 0 mm
19:22 -10.3 °C -17.7 °C 34462.7 hPa North 9 km/h 17.9 km/h 40 % 0 mm
19:27 -10.3 °C -17.7 °C 34462.7 hPa North 9 km/h 17.9 km/h 40 % 0 mm
19:32 -10.3 °C -17.7 °C 34462.7 hPa North 9 km/h 17.9 km/h 40 % 0 mm
19:37 -10.3 °C -17.7 °C 34462.7 hPa North 9 km/h 17.9 km/h 40 % 0 mm
19:42 -10.3 °C -17.7 °C 34462.7 hPa North 9 km/h 17.9 km/h 40 % 0 mm
19:47 -10.3 °C -17.7 °C 34462.7 hPa North 9 km/h 17.9 km/h 40 % 0 mm
19:52 -10.3 °C -17.7 °C 34462.7 hPa North 9 km/h 17.9 km/h 40 % 0 mm
19:57 -10.3 °C -17.7 °C 34462.7 hPa North 9 km/h 17.9 km/h 40 % 0 mm
20:02 -10.3 °C -17.7 °C 34462.7 hPa North 9 km/h 17.9 km/h 40 % 0 mm
20:07 -10.3 °C -17.7 °C 34462.7 hPa North 9 km/h 17.9 km/h 40 % 0 mm
20:12 -10.3 °C -17.7 °C 34462.7 hPa North 9 km/h 17.9 km/h 40 % 0 mm
20:17 -10.3 °C -17.7 °C 34462.7 hPa North 9 km/h 17.9 km/h 40 % 0 mm
20:22 -10.3 °C -17.7 °C 34462.7 hPa North 9 km/h 17.9 km/h 40 % 0 mm
20:27 -10.3 °C -17.7 °C 34462.7 hPa North 9 km/h 17.9 km/h 40 % 0 mm
20:32 -10.3 °C -17.7 °C 34462.7 hPa North 9 km/h 17.9 km/h 40 % 0 mm
20:37 -10.3 °C -17.7 °C 34462.7 hPa North 9 km/h 17.9 km/h 40 % 0 mm
20:42 -10.3 °C -17.7 °C 34462.7 hPa North 9 km/h 17.9 km/h 40 % 0 mm
20:47 -10.3 °C -17.7 °C 34462.7 hPa North 9 km/h 17.9 km/h 40 % 0 mm
20:52 -10.3 °C -17.7 °C 34462.7 hPa North 9 km/h 17.9 km/h 40 % 0 mm
20:57 -10.3 °C -17.7 °C 34462.7 hPa North 9 km/h 17.9 km/h 40 % 0 mm
21:02 -10.3 °C -17.7 °C 34462.7 hPa North 9 km/h 17.9 km/h 40 % 0 mm
21:12 -10.3 °C -17.7 °C 34462.7 hPa North 9 km/h 17.9 km/h 40 % 0 mm
21:17 -10.3 °C -17.7 °C 34462.7 hPa North 9 km/h 17.9 km/h 40 % 0 mm
21:22 -10.3 °C -17.7 °C 34462.7 hPa North 9 km/h 17.9 km/h 40 % 0 mm
21:32 -10.3 °C -17.7 °C 34462.7 hPa North 9 km/h 17.9 km/h 40 % 0 mm
21:37 -10.3 °C -17.7 °C 34462.7 hPa North 9 km/h 17.9 km/h 40 % 0 mm
21:42 -10.3 °C -17.7 °C 34462.7 hPa North 9 km/h 17.9 km/h 40 % 0 mm
21:47 -10.3 °C -17.7 °C 34462.7 hPa North 9 km/h 17.9 km/h 40 % 0 mm
21:52 -10.3 °C -17.7 °C 34462.7 hPa North 9 km/h 17.9 km/h 40 % 0 mm
21:57 -10.3 °C -17.7 °C 34462.7 hPa North 9 km/h 17.9 km/h 40 % 0 mm
22:02 -10.3 °C -17.7 °C 34462.7 hPa North 9 km/h 17.9 km/h 40 % 0 mm
22:07 -10.3 °C -17.7 °C 34462.7 hPa North 9 km/h 17.9 km/h 40 % 0 mm
22:12 -10.3 °C -17.7 °C 34462.7 hPa North 9 km/h 17.9 km/h 40 % 0 mm
22:17 -12.7 °C -19 °C 34601.5 hPa North 9 km/h 9 km/h 45 % 0 mm
22:22 -12.7 °C -19 °C 34601.5 hPa North 9 km/h 9 km/h 45 % 0 mm
22:27 -12.7 °C -19 °C 34601.5 hPa North 9 km/h 9 km/h 45 % 0 mm
22:32 -12.7 °C -19 °C 34601.5 hPa North 9 km/h 9 km/h 45 % 0 mm
22:37 -12.7 °C -19 °C 34601.5 hPa North 9 km/h 9 km/h 45 % 0 mm
22:47 -12.8 °C -19.1 °C 34635.4 hPa NE 4.2 km/h 6.8 km/h 45 % 0 mm
22:53 -12.8 °C -18.9 °C 34635.4 hPa NE 4.2 km/h 6.8 km/h 46 % 0 mm
22:58 -12.9 °C -19 °C 34635.4 hPa SSE 6.8 km/h 6.8 km/h 46 % 0 mm
23:03 -13 °C -19.1 °C 34635.4 hPa SSE 6.8 km/h 6.8 km/h 46 % 0 mm
23:08 -13.1 °C -19.2 °C 34635.4 hPa SSE 6.8 km/h 6.8 km/h 46 % 0 mm
23:13 -13.1 °C -19.2 °C 34669.3 hPa SW 9 km/h 9 km/h 46 % 0 mm
23:18 -13.1 °C -19.2 °C 34669.3 hPa SW 9 km/h 9 km/h 46 % 0 mm
Meteo Sesrovires
Elogis d' Weather Underground - 1.25 mb

Guio original per  Jim McMurry - jmcmurry@mwt.net Adaptat per a la plantilla per  Wim van der Kuil - Leuven-Template.eu

Trobareu la nostra informacio del temps tambe a:

Weather Underground

AWEKAS